sensor_id;sensor_type;location;lat;lon;timestamp;P1;durP1;ratioP1;P2;durP2;ratioP2
1679;SDS011;838;51.794;12.258;2022-10-16T00:01:14;3.53;;;1.60;;
1679;SDS011;838;51.794;12.258;2022-10-16T00:03:41;3.17;;;1.70;;
1679;SDS011;838;51.794;12.258;2022-10-16T00:06:08;3.73;;;1.73;;
1679;SDS011;838;51.794;12.258;2022-10-16T00:08:35;2.83;;;1.40;;
1679;SDS011;838;51.794;12.258;2022-10-16T00:11:05;2.80;;;1.30;;
1679;SDS011;838;51.794;12.258;2022-10-16T00:13:33;3.53;;;2.10;;
1679;SDS011;838;51.794;12.258;2022-10-16T00:16:00;3.10;;;1.30;;
1679;SDS011;838;51.794;12.258;2022-10-16T00:18:27;2.90;;;1.40;;
1679;SDS011;838;51.794;12.258;2022-10-16T00:20:54;4.97;;;1.30;;
1679;SDS011;838;51.794;12.258;2022-10-16T00:23:20;3.03;;;1.60;;
1679;SDS011;838;51.794;12.258;2022-10-16T00:25:59;2.50;;;1.20;;
1679;SDS011;838;51.794;12.258;2022-10-16T00:28:27;2.70;;;1.20;;
1679;SDS011;838;51.794;12.258;2022-10-16T00:30:53;4.07;;;1.30;;
1679;SDS011;838;51.794;12.258;2022-10-16T00:33:19;2.70;;;1.33;;
1679;SDS011;838;51.794;12.258;2022-10-16T00:35:46;2.47;;;1.10;;
1679;SDS011;838;51.794;12.258;2022-10-16T00:38:12;3.87;;;1.23;;
1679;SDS011;838;51.794;12.258;2022-10-16T00:40:37;4.40;;;1.10;;
1679;SDS011;838;51.794;12.258;2022-10-16T00:43:08;3.00;;;1.40;;
1679;SDS011;838;51.794;12.258;2022-10-16T00:45:39;2.70;;;1.10;;
1679;SDS011;838;51.794;12.258;2022-10-16T00:48:06;2.60;;;1.00;;
1679;SDS011;838;51.794;12.258;2022-10-16T00:50:38;3.20;;;1.30;;
1679;SDS011;838;51.794;12.258;2022-10-16T00:53:08;3.90;;;1.43;;
1679;SDS011;838;51.794;12.258;2022-10-16T00:55:34;3.43;;;1.03;;
1679;SDS011;838;51.794;12.258;2022-10-16T00:57:59;3.90;;;1.30;;
1679;SDS011;838;51.794;12.258;2022-10-16T01:00:26;3.97;;;1.17;;
1679;SDS011;838;51.794;12.258;2022-10-16T01:02:53;2.70;;;1.20;;
1679;SDS011;838;51.794;12.258;2022-10-16T01:05:20;2.87;;;1.03;;
1679;SDS011;838;51.794;12.258;2022-10-16T01:10:38;2.80;;;1.10;;
1679;SDS011;838;51.794;12.258;2022-10-16T01:13:32;2.50;;;1.10;;
1679;SDS011;838;51.794;12.258;2022-10-16T01:16:18;2.77;;;1.07;;
1679;SDS011;838;51.794;12.258;2022-10-16T01:18:56;2.50;;;1.00;;
1679;SDS011;838;51.794;12.258;2022-10-16T01:21:29;2.77;;;1.27;;
1679;SDS011;838;51.794;12.258;2022-10-16T01:29:42;2.73;;;1.07;;
1679;SDS011;838;51.794;12.258;2022-10-16T01:32:25;3.37;;;0.87;;
1679;SDS011;838;51.794;12.258;2022-10-16T01:34:58;2.70;;;0.90;;
1679;SDS011;838;51.794;12.258;2022-10-16T01:37:38;2.40;;;1.00;;
1679;SDS011;838;51.794;12.258;2022-10-16T01:40:09;3.23;;;1.10;;
1679;SDS011;838;51.794;12.258;2022-10-16T01:42:41;4.50;;;1.30;;
1679;SDS011;838;51.794;12.258;2022-10-16T01:45:11;2.73;;;1.30;;
1679;SDS011;838;51.794;12.258;2022-10-16T01:47:39;2.60;;;1.03;;
1679;SDS011;838;51.794;12.258;2022-10-16T01:50:08;4.13;;;1.00;;
1679;SDS011;838;51.794;12.258;2022-10-16T01:52:35;2.53;;;0.90;;
1679;SDS011;838;51.794;12.258;2022-10-16T01:55:05;2.90;;;1.57;;
1679;SDS011;838;51.794;12.258;2022-10-16T01:57:34;2.83;;;1.40;;
1679;SDS011;838;51.794;12.258;2022-10-16T02:00:05;19.57;;;1.63;;
1679;SDS011;838;51.794;12.258;2022-10-16T02:02:33;3.03;;;1.60;;
1679;SDS011;838;51.794;12.258;2022-10-16T02:08:06;2.80;;;1.10;;
1679;SDS011;838;51.794;12.258;2022-10-16T02:10:32;3.60;;;1.30;;
1679;SDS011;838;51.794;12.258;2022-10-16T02:13:07;4.30;;;1.50;;
1679;SDS011;838;51.794;12.258;2022-10-16T02:15:37;5.37;;;1.60;;
1679;SDS011;838;51.794;12.258;2022-10-16T02:18:03;2.70;;;1.23;;
1679;SDS011;838;51.794;12.258;2022-10-16T02:20:32;4.80;;;1.40;;
1679;SDS011;838;51.794;12.258;2022-10-16T02:23:07;4.03;;;1.83;;
1679;SDS011;838;51.794;12.258;2022-10-16T02:25:37;2.87;;;1.43;;
1679;SDS011;838;51.794;12.258;2022-10-16T02:28:08;3.80;;;1.33;;
1679;SDS011;838;51.794;12.258;2022-10-16T02:30:55;4.33;;;1.50;;
1679;SDS011;838;51.794;12.258;2022-10-16T02:33:25;2.90;;;1.23;;
1679;SDS011;838;51.794;12.258;2022-10-16T02:35:53;3.07;;;1.40;;
1679;SDS011;838;51.794;12.258;2022-10-16T02:38:20;3.00;;;1.30;;
1679;SDS011;838;51.794;12.258;2022-10-16T02:40:47;3.00;;;1.50;;
1679;SDS011;838;51.794;12.258;2022-10-16T02:43:14;2.90;;;1.20;;
1679;SDS011;838;51.794;12.258;2022-10-16T02:45:40;2.97;;;1.57;;
1679;SDS011;838;51.794;12.258;2022-10-16T02:48:09;2.80;;;1.30;;
1679;SDS011;838;51.794;12.258;2022-10-16T02:50:34;3.70;;;1.50;;
1679;SDS011;838;51.794;12.258;2022-10-16T02:53:00;2.83;;;1.50;;
1679;SDS011;838;51.794;12.258;2022-10-16T02:55:27;3.03;;;1.53;;
1679;SDS011;838;51.794;12.258;2022-10-16T02:57:53;3.63;;;1.60;;
1679;SDS011;838;51.794;12.258;2022-10-16T03:00:20;3.30;;;1.70;;
1679;SDS011;838;51.794;12.258;2022-10-16T03:02:46;3.00;;;1.57;;
1679;SDS011;838;51.794;12.258;2022-10-16T03:05:12;3.60;;;2.00;;
1679;SDS011;838;51.794;12.258;2022-10-16T03:07:38;4.00;;;1.83;;
1679;SDS011;838;51.794;12.258;2022-10-16T03:10:04;2.90;;;1.67;;
1679;SDS011;838;51.794;12.258;2022-10-16T03:12:30;3.93;;;1.80;;
1679;SDS011;838;51.794;12.258;2022-10-16T03:14:56;2.97;;;1.70;;
1679;SDS011;838;51.794;12.258;2022-10-16T03:17:23;5.43;;;1.60;;
1679;SDS011;838;51.794;12.258;2022-10-16T03:19:49;7.80;;;1.80;;
1679;SDS011;838;51.794;12.258;2022-10-16T03:22:15;3.10;;;1.60;;
1679;SDS011;838;51.794;12.258;2022-10-16T03:24:41;3.10;;;1.70;;
1679;SDS011;838;51.794;12.258;2022-10-16T03:27:06;2.97;;;1.47;;
1679;SDS011;838;51.794;12.258;2022-10-16T03:29:32;2.87;;;1.63;;
1679;SDS011;838;51.794;12.258;2022-10-16T03:31:58;4.20;;;1.90;;
1679;SDS011;838;51.794;12.258;2022-10-16T03:34:24;2.97;;;1.40;;
1679;SDS011;838;51.794;12.258;2022-10-16T03:36:50;2.90;;;1.70;;
1679;SDS011;838;51.794;12.258;2022-10-16T03:39:16;3.30;;;2.00;;
1679;SDS011;838;51.794;12.258;2022-10-16T03:41:42;3.23;;;2.07;;
1679;SDS011;838;51.794;12.258;2022-10-16T03:44:08;3.70;;;2.57;;
1679;SDS011;838;51.794;12.258;2022-10-16T03:46:33;3.80;;;2.40;;
1679;SDS011;838;51.794;12.258;2022-10-16T03:48:59;3.33;;;1.90;;
1679;SDS011;838;51.794;12.258;2022-10-16T03:51:25;3.67;;;2.20;;
1679;SDS011;838;51.794;12.258;2022-10-16T03:53:51;2.97;;;1.73;;
1679;SDS011;838;51.794;12.258;2022-10-16T03:56:16;3.27;;;2.17;;
1679;SDS011;838;51.794;12.258;2022-10-16T03:58:42;4.60;;;2.10;;
1679;SDS011;838;51.794;12.258;2022-10-16T04:01:08;3.03;;;1.77;;
1679;SDS011;838;51.794;12.258;2022-10-16T04:03:33;3.30;;;2.40;;
1679;SDS011;838;51.794;12.258;2022-10-16T04:05:59;3.37;;;2.37;;
1679;SDS011;838;51.794;12.258;2022-10-16T04:08:25;3.63;;;2.03;;
1679;SDS011;838;51.794;12.258;2022-10-16T04:10:51;3.40;;;2.20;;
1679;SDS011;838;51.794;12.258;2022-10-16T04:13:16;5.30;;;2.30;;
1679;SDS011;838;51.794;12.258;2022-10-16T04:15:42;4.20;;;2.07;;
1679;SDS011;838;51.794;12.258;2022-10-16T04:18:10;5.80;;;1.97;;
1679;SDS011;838;51.794;12.258;2022-10-16T04:20:35;4.33;;;2.30;;
1679;SDS011;838;51.794;12.258;2022-10-16T04:23:01;5.30;;;2.57;;
1679;SDS011;838;51.794;12.258;2022-10-16T04:25:27;5.30;;;3.07;;
1679;SDS011;838;51.794;12.258;2022-10-16T04:27:53;5.93;;;2.63;;
1679;SDS011;838;51.794;12.258;2022-10-16T04:30:20;4.60;;;2.57;;
1679;SDS011;838;51.794;12.258;2022-10-16T04:32:49;4.57;;;2.60;;
1679;SDS011;838;51.794;12.258;2022-10-16T04:35:16;4.37;;;2.40;;
1679;SDS011;838;51.794;12.258;2022-10-16T04:37:43;3.80;;;2.37;;
1679;SDS011;838;51.794;12.258;2022-10-16T04:40:09;4.20;;;2.50;;
1679;SDS011;838;51.794;12.258;2022-10-16T04:42:35;3.50;;;2.23;;
1679;SDS011;838;51.794;12.258;2022-10-16T04:45:00;4.60;;;2.67;;
1679;SDS011;838;51.794;12.258;2022-10-16T04:47:26;3.80;;;2.50;;
1679;SDS011;838;51.794;12.258;2022-10-16T04:49:52;5.73;;;2.67;;
1679;SDS011;838;51.794;12.258;2022-10-16T04:52:17;3.87;;;2.57;;
1679;SDS011;838;51.794;12.258;2022-10-16T04:54:47;3.37;;;2.10;;
1679;SDS011;838;51.794;12.258;2022-10-16T04:57:15;4.20;;;1.80;;
1679;SDS011;838;51.794;12.258;2022-10-16T04:59:40;3.80;;;2.20;;
1679;SDS011;838;51.794;12.258;2022-10-16T05:02:06;3.60;;;2.00;;
1679;SDS011;838;51.794;12.258;2022-10-16T05:04:32;6.43;;;2.20;;
1679;SDS011;838;51.794;12.258;2022-10-16T05:06:57;4.10;;;2.40;;
1679;SDS011;838;51.794;12.258;2022-10-16T05:09:25;4.40;;;2.23;;
1679;SDS011;838;51.794;12.258;2022-10-16T05:11:52;3.33;;;2.07;;
1679;SDS011;838;51.794;12.258;2022-10-16T05:14:18;3.40;;;2.20;;
1679;SDS011;838;51.794;12.258;2022-10-16T05:16:44;4.80;;;2.40;;
1679;SDS011;838;51.794;12.258;2022-10-16T05:19:09;3.57;;;1.90;;
1679;SDS011;838;51.794;12.258;2022-10-16T05:21:35;3.30;;;2.03;;
1679;SDS011;838;51.794;12.258;2022-10-16T05:24:01;4.30;;;2.10;;
1679;SDS011;838;51.794;12.258;2022-10-16T05:26:26;6.93;;;2.03;;
1679;SDS011;838;51.794;12.258;2022-10-16T05:28:52;4.00;;;1.80;;
1679;SDS011;838;51.794;12.258;2022-10-16T05:31:18;4.77;;;2.30;;
1679;SDS011;838;51.794;12.258;2022-10-16T05:33:43;3.50;;;2.13;;
1679;SDS011;838;51.794;12.258;2022-10-16T05:36:09;4.20;;;2.37;;
1679;SDS011;838;51.794;12.258;2022-10-16T05:38:35;3.80;;;2.23;;
1679;SDS011;838;51.794;12.258;2022-10-16T05:41:02;3.67;;;2.17;;
1679;SDS011;838;51.794;12.258;2022-10-16T05:43:29;3.70;;;2.40;;
1679;SDS011;838;51.794;12.258;2022-10-16T05:46:00;7.10;;;2.60;;
1679;SDS011;838;51.794;12.258;2022-10-16T05:48:27;3.80;;;2.70;;
1679;SDS011;838;51.794;12.258;2022-10-16T05:51:01;3.93;;;2.30;;
1679;SDS011;838;51.794;12.258;2022-10-16T05:53:29;4.13;;;2.70;;
1679;SDS011;838;51.794;12.258;2022-10-16T05:55:56;4.80;;;2.80;;
1679;SDS011;838;51.794;12.258;2022-10-16T05:58:23;3.87;;;2.77;;
1679;SDS011;838;51.794;12.258;2022-10-16T06:01:09;3.80;;;2.40;;
1679;SDS011;838;51.794;12.258;2022-10-16T06:03:37;4.37;;;3.40;;
1679;SDS011;838;51.794;12.258;2022-10-16T06:08:42;4.83;;;2.00;;
1679;SDS011;838;51.794;12.258;2022-10-16T06:11:11;3.73;;;2.40;;
1679;SDS011;838;51.794;12.258;2022-10-16T06:13:40;4.83;;;3.20;;
1679;SDS011;838;51.794;12.258;2022-10-16T06:16:07;3.87;;;2.70;;
1679;SDS011;838;51.794;12.258;2022-10-16T06:18:34;4.23;;;2.40;;
1679;SDS011;838;51.794;12.258;2022-10-16T06:21:00;4.03;;;2.20;;
1679;SDS011;838;51.794;12.258;2022-10-16T06:23:35;4.20;;;1.90;;
1679;SDS011;838;51.794;12.258;2022-10-16T06:26:11;6.07;;;3.00;;
1679;SDS011;838;51.794;12.258;2022-10-16T06:28:38;3.90;;;2.80;;
1679;SDS011;838;51.794;12.258;2022-10-16T06:31:05;3.60;;;2.10;;
1679;SDS011;838;51.794;12.258;2022-10-16T06:33:32;4.70;;;2.33;;
1679;SDS011;838;51.794;12.258;2022-10-16T06:36:05;4.67;;;3.30;;
1679;SDS011;838;51.794;12.258;2022-10-16T06:38:33;4.10;;;2.90;;
1679;SDS011;838;51.794;12.258;2022-10-16T06:40:59;5.37;;;2.53;;
1679;SDS011;838;51.794;12.258;2022-10-16T06:43:25;3.37;;;2.40;;
1679;SDS011;838;51.794;12.258;2022-10-16T06:45:54;3.80;;;2.47;;
1679;SDS011;838;51.794;12.258;2022-10-16T06:48:21;3.43;;;1.60;;
1679;SDS011;838;51.794;12.258;2022-10-16T06:53:37;3.47;;;2.23;;
1679;SDS011;838;51.794;12.258;2022-10-16T06:56:08;3.30;;;1.90;;
1679;SDS011;838;51.794;12.258;2022-10-16T06:58:37;4.20;;;1.50;;
1679;SDS011;838;51.794;12.258;2022-10-16T07:01:04;3.93;;;1.50;;
1679;SDS011;838;51.794;12.258;2022-10-16T07:03:30;3.40;;;2.00;;
1679;SDS011;838;51.794;12.258;2022-10-16T07:06:00;4.17;;;1.50;;
1679;SDS011;838;51.794;12.258;2022-10-16T07:08:28;2.70;;;1.20;;
1679;SDS011;838;51.794;12.258;2022-10-16T07:11:00;3.17;;;1.73;;
1679;SDS011;838;51.794;12.258;2022-10-16T07:13:36;4.00;;;1.57;;
1679;SDS011;838;51.794;12.258;2022-10-16T07:16:16;4.00;;;1.27;;
1679;SDS011;838;51.794;12.258;2022-10-16T07:18:44;2.70;;;1.23;;
1679;SDS011;838;51.794;12.258;2022-10-16T07:21:15;3.30;;;1.50;;
1679;SDS011;838;51.794;12.258;2022-10-16T07:23:42;2.50;;;1.10;;
1679;SDS011;838;51.794;12.258;2022-10-16T07:26:09;3.13;;;1.97;;
1679;SDS011;838;51.794;12.258;2022-10-16T07:28:35;3.30;;;1.33;;
1679;SDS011;838;51.794;12.258;2022-10-16T07:31:01;2.50;;;0.90;;
1679;SDS011;838;51.794;12.258;2022-10-16T07:33:32;2.63;;;1.40;;
1679;SDS011;838;51.794;12.258;2022-10-16T07:35:58;2.60;;;1.20;;
1679;SDS011;838;51.794;12.258;2022-10-16T07:38:23;3.20;;;1.30;;
1679;SDS011;838;51.794;12.258;2022-10-16T07:40:55;4.47;;;1.40;;
1679;SDS011;838;51.794;12.258;2022-10-16T07:43:22;3.10;;;1.50;;
1679;SDS011;838;51.794;12.258;2022-10-16T07:45:48;5.90;;;4.20;;
1679;SDS011;838;51.794;12.258;2022-10-16T07:48:15;4.50;;;2.90;;
1679;SDS011;838;51.794;12.258;2022-10-16T07:50:42;3.27;;;1.20;;
1679;SDS011;838;51.794;12.258;2022-10-16T07:53:08;3.10;;;1.20;;
1679;SDS011;838;51.794;12.258;2022-10-16T07:55:35;2.60;;;1.30;;
1679;SDS011;838;51.794;12.258;2022-10-16T07:58:00;3.10;;;1.60;;
1679;SDS011;838;51.794;12.258;2022-10-16T08:00:26;2.87;;;1.20;;
1679;SDS011;838;51.794;12.258;2022-10-16T08:02:52;2.50;;;1.10;;
1679;SDS011;838;51.794;12.258;2022-10-16T08:05:17;3.53;;;1.30;;
1679;SDS011;838;51.794;12.258;2022-10-16T08:07:47;3.70;;;1.40;;
1679;SDS011;838;51.794;12.258;2022-10-16T08:10:15;2.77;;;1.10;;
1679;SDS011;838;51.794;12.258;2022-10-16T08:12:42;2.80;;;0.90;;
1679;SDS011;838;51.794;12.258;2022-10-16T08:15:09;2.50;;;1.10;;
1679;SDS011;838;51.794;12.258;2022-10-16T08:17:36;4.80;;;1.20;;
1679;SDS011;838;51.794;12.258;2022-10-16T08:20:01;3.10;;;1.17;;
1679;SDS011;838;51.794;12.258;2022-10-16T08:22:28;2.80;;;1.00;;
1679;SDS011;838;51.794;12.258;2022-10-16T08:24:53;2.60;;;1.07;;
1679;SDS011;838;51.794;12.258;2022-10-16T08:27:19;3.00;;;1.30;;
1679;SDS011;838;51.794;12.258;2022-10-16T08:29:46;3.67;;;1.10;;
1679;SDS011;838;51.794;12.258;2022-10-16T08:32:13;3.37;;;0.93;;
1679;SDS011;838;51.794;12.258;2022-10-16T08:34:39;3.17;;;1.00;;
1679;SDS011;838;51.794;12.258;2022-10-16T08:37:04;3.50;;;1.37;;
1679;SDS011;838;51.794;12.258;2022-10-16T08:39:36;3.50;;;0.90;;
1679;SDS011;838;51.794;12.258;2022-10-16T08:42:07;3.30;;;1.10;;
1679;SDS011;838;51.794;12.258;2022-10-16T08:44:45;3.30;;;1.20;;
1679;SDS011;838;51.794;12.258;2022-10-16T08:47:26;2.83;;;0.80;;
1679;SDS011;838;51.794;12.258;2022-10-16T08:50:02;3.23;;;0.90;;
1679;SDS011;838;51.794;12.258;2022-10-16T08:52:38;2.43;;;0.90;;
1679;SDS011;838;51.794;12.258;2022-10-16T08:55:06;3.60;;;0.97;;
1679;SDS011;838;51.794;12.258;2022-10-16T08:57:41;5.67;;;1.40;;
1679;SDS011;838;51.794;12.258;2022-10-16T09:00:13;2.30;;;0.73;;
1679;SDS011;838;51.794;12.258;2022-10-16T09:02:52;4.33;;;1.00;;
1679;SDS011;838;51.794;12.258;2022-10-16T09:05:34;2.40;;;0.80;;
1679;SDS011;838;51.794;12.258;2022-10-16T09:08:22;8.33;;;1.00;;
1679;SDS011;838;51.794;12.258;2022-10-16T09:10:59;2.70;;;1.00;;
1679;SDS011;838;51.794;12.258;2022-10-16T09:13:56;3.47;;;0.80;;
1679;SDS011;838;51.794;12.258;2022-10-16T09:16:30;2.53;;;0.90;;
1679;SDS011;838;51.794;12.258;2022-10-16T09:21:45;2.80;;;0.90;;
1679;SDS011;838;51.794;12.258;2022-10-16T09:24:16;2.50;;;0.77;;
1679;SDS011;838;51.794;12.258;2022-10-16T09:26:43;2.93;;;1.10;;
1679;SDS011;838;51.794;12.258;2022-10-16T09:29:13;4.17;;;1.10;;
1679;SDS011;838;51.794;12.258;2022-10-16T09:31:40;2.40;;;0.90;;
1679;SDS011;838;51.794;12.258;2022-10-16T09:34:11;3.70;;;0.77;;
1679;SDS011;838;51.794;12.258;2022-10-16T09:37:02;3.90;;;0.77;;
1679;SDS011;838;51.794;12.258;2022-10-16T09:39:54;2.50;;;0.83;;
1679;SDS011;838;51.794;12.258;2022-10-16T09:42:21;2.40;;;0.90;;
1679;SDS011;838;51.794;12.258;2022-10-16T09:44:50;3.77;;;0.90;;
1679;SDS011;838;51.794;12.258;2022-10-16T09:47:22;3.30;;;1.07;;
1679;SDS011;838;51.794;12.258;2022-10-16T09:49:51;4.20;;;1.00;;
1679;SDS011;838;51.794;12.258;2022-10-16T09:52:26;2.30;;;0.70;;
1679;SDS011;838;51.794;12.258;2022-10-16T09:54:52;2.40;;;0.70;;
1679;SDS011;838;51.794;12.258;2022-10-16T09:57:20;2.40;;;0.77;;
1679;SDS011;838;51.794;12.258;2022-10-16T10:00:05;2.20;;;0.70;;
1679;SDS011;838;51.794;12.258;2022-10-16T10:02:35;2.50;;;0.80;;
1679;SDS011;838;51.794;12.258;2022-10-16T10:05:04;2.60;;;0.80;;
1679;SDS011;838;51.794;12.258;2022-10-16T10:07:42;5.87;;;1.23;;
1679;SDS011;838;51.794;12.258;2022-10-16T10:10:20;3.43;;;0.70;;
1679;SDS011;838;51.794;12.258;2022-10-16T10:12:48;2.63;;;0.70;;
1679;SDS011;838;51.794;12.258;2022-10-16T10:15:14;2.33;;;0.67;;
1679;SDS011;838;51.794;12.258;2022-10-16T10:17:54;2.40;;;0.63;;
1679;SDS011;838;51.794;12.258;2022-10-16T10:20:41;2.50;;;0.90;;
1679;SDS011;838;51.794;12.258;2022-10-16T10:23:40;2.47;;;0.80;;
1679;SDS011;838;51.794;12.258;2022-10-16T10:31:48;2.60;;;0.77;;
1679;SDS011;838;51.794;12.258;2022-10-16T10:34:25;2.30;;;0.70;;
1679;SDS011;838;51.794;12.258;2022-10-16T10:46:23;5.40;;;0.93;;
1679;SDS011;838;51.794;12.258;2022-10-16T11:03:46;2.40;;;0.70;;
1679;SDS011;838;51.794;12.258;2022-10-16T11:06:49;2.43;;;0.87;;
1679;SDS011;838;51.794;12.258;2022-10-16T11:09:22;2.10;;;0.60;;
1679;SDS011;838;51.794;12.258;2022-10-16T11:12:00;2.57;;;0.80;;
1679;SDS011;838;51.794;12.258;2022-10-16T11:17:33;2.50;;;0.60;;
1679;SDS011;838;51.794;12.258;2022-10-16T11:20:34;2.27;;;0.60;;
1679;SDS011;838;51.794;12.258;2022-10-16T11:23:10;3.03;;;1.10;;
1679;SDS011;838;51.794;12.258;2022-10-16T11:25:48;3.30;;;0.70;;
1679;SDS011;838;51.794;12.258;2022-10-16T11:36:16;2.27;;;0.50;;
1679;SDS011;838;51.794;12.258;2022-10-16T11:41:41;2.40;;;0.77;;
1679;SDS011;838;51.794;12.258;2022-10-16T11:50:00;2.97;;;0.80;;
1679;SDS011;838;51.794;12.258;2022-10-16T11:52:44;2.20;;;0.50;;
1679;SDS011;838;51.794;12.258;2022-10-16T11:55:34;2.10;;;0.50;;
1679;SDS011;838;51.794;12.258;2022-10-16T11:58:01;2.20;;;0.60;;
1679;SDS011;838;51.794;12.258;2022-10-16T12:03:20;2.13;;;0.57;;
1679;SDS011;838;51.794;12.258;2022-10-16T12:08:20;2.10;;;0.50;;
1679;SDS011;838;51.794;12.258;2022-10-16T12:10:50;2.30;;;0.50;;
1679;SDS011;838;51.794;12.258;2022-10-16T12:16:31;3.10;;;0.70;;
1679;SDS011;838;51.794;12.258;2022-10-16T12:18:50;2.20;;;0.60;;
1679;SDS011;838;51.794;12.258;2022-10-16T12:21:43;2.20;;;0.60;;
1679;SDS011;838;51.794;12.258;2022-10-16T12:24:36;2.20;;;0.60;;
1679;SDS011;838;51.794;12.258;2022-10-16T12:30:14;7.87;;;0.70;;
1679;SDS011;838;51.794;12.258;2022-10-16T12:32:53;2.00;;;0.50;;
1679;SDS011;838;51.794;12.258;2022-10-16T12:35:21;2.43;;;0.60;;
1679;SDS011;838;51.794;12.258;2022-10-16T12:37:50;2.83;;;0.60;;
1679;SDS011;838;51.794;12.258;2022-10-16T12:40:27;3.03;;;0.40;;
1679;SDS011;838;51.794;12.258;2022-10-16T12:42:56;2.20;;;0.50;;
1679;SDS011;838;51.794;12.258;2022-10-16T12:45:36;2.70;;;0.50;;
1679;SDS011;838;51.794;12.258;2022-10-16T12:48:04;2.10;;;0.60;;
1679;SDS011;838;51.794;12.258;2022-10-16T12:50:43;2.30;;;0.60;;
1679;SDS011;838;51.794;12.258;2022-10-16T12:53:23;2.97;;;0.90;;
1679;SDS011;838;51.794;12.258;2022-10-16T12:55:56;2.83;;;0.50;;
1679;SDS011;838;51.794;12.258;2022-10-16T13:21:56;2.43;;;0.57;;
1679;SDS011;838;51.794;12.258;2022-10-16T13:27:33;3.80;;;0.67;;
1679;SDS011;838;51.794;12.258;2022-10-16T13:29:37;3.20;;;0.67;;
1679;SDS011;838;51.794;12.258;2022-10-16T13:32:09;2.10;;;0.50;;
1679;SDS011;838;51.794;12.258;2022-10-16T13:34:44;2.10;;;0.57;;
1679;SDS011;838;51.794;12.258;2022-10-16T13:37:18;2.67;;;0.80;;
1679;SDS011;838;51.794;12.258;2022-10-16T13:39:46;2.13;;;0.47;;
1679;SDS011;838;51.794;12.258;2022-10-16T13:42:13;2.10;;;0.50;;
1679;SDS011;838;51.794;12.258;2022-10-16T13:44:52;3.00;;;0.70;;
1679;SDS011;838;51.794;12.258;2022-10-16T13:47:29;1.97;;;0.40;;
1679;SDS011;838;51.794;12.258;2022-10-16T13:52:27;2.20;;;0.40;;
1679;SDS011;838;51.794;12.258;2022-10-16T13:54:53;5.23;;;0.70;;
1679;SDS011;838;51.794;12.258;2022-10-16T13:57:21;3.20;;;0.47;;
1679;SDS011;838;51.794;12.258;2022-10-16T13:59:48;2.10;;;0.50;;
1679;SDS011;838;51.794;12.258;2022-10-16T14:02:18;2.00;;;0.43;;
1679;SDS011;838;51.794;12.258;2022-10-16T14:05:30;5.17;;;0.53;;
1679;SDS011;838;51.794;12.258;2022-10-16T14:08:09;2.60;;;0.57;;
1679;SDS011;838;51.794;12.258;2022-10-16T14:10:36;2.00;;;0.50;;
1679;SDS011;838;51.794;12.258;2022-10-16T14:13:05;2.10;;;0.50;;
1679;SDS011;838;51.794;12.258;2022-10-16T14:15:32;2.83;;;0.53;;
1679;SDS011;838;51.794;12.258;2022-10-16T14:18:02;2.30;;;0.50;;
1679;SDS011;838;51.794;12.258;2022-10-16T14:20:30;2.10;;;0.50;;
1679;SDS011;838;51.794;12.258;2022-10-16T14:23:02;2.20;;;0.60;;
1679;SDS011;838;51.794;12.258;2022-10-16T14:25:32;2.23;;;0.53;;
1679;SDS011;838;51.794;12.258;2022-10-16T14:31:02;1.90;;;0.40;;
1679;SDS011;838;51.794;12.258;2022-10-16T14:33:46;1.87;;;0.30;;
1679;SDS011;838;51.794;12.258;2022-10-16T14:36:15;2.23;;;0.40;;
1679;SDS011;838;51.794;12.258;2022-10-16T14:38:54;2.50;;;0.50;;
1679;SDS011;838;51.794;12.258;2022-10-16T14:41:27;2.40;;;0.40;;
1679;SDS011;838;51.794;12.258;2022-10-16T14:44:03;2.23;;;0.50;;
1679;SDS011;838;51.794;12.258;2022-10-16T14:46:31;2.67;;;0.50;;
1679;SDS011;838;51.794;12.258;2022-10-16T14:49:15;2.37;;;0.60;;
1679;SDS011;838;51.794;12.258;2022-10-16T14:51:47;2.00;;;0.47;;
1679;SDS011;838;51.794;12.258;2022-10-16T14:54:13;2.07;;;0.50;;
1679;SDS011;838;51.794;12.258;2022-10-16T14:56:49;2.17;;;0.67;;
1679;SDS011;838;51.794;12.258;2022-10-16T14:59:28;2.20;;;0.60;;
1679;SDS011;838;51.794;12.258;2022-10-16T15:02:09;3.53;;;0.50;;
1679;SDS011;838;51.794;12.258;2022-10-16T15:04:48;2.50;;;0.60;;
1679;SDS011;838;51.794;12.258;2022-10-16T15:07:14;2.03;;;0.40;;
1679;SDS011;838;51.794;12.258;2022-10-16T15:09:43;2.00;;;0.40;;
1679;SDS011;838;51.794;12.258;2022-10-16T15:12:08;2.73;;;0.77;;
1679;SDS011;838;51.794;12.258;2022-10-16T15:14:34;2.27;;;0.50;;
1679;SDS011;838;51.794;12.258;2022-10-16T15:17:00;1.97;;;0.53;;
1679;SDS011;838;51.794;12.258;2022-10-16T15:19:27;2.07;;;0.50;;
1679;SDS011;838;51.794;12.258;2022-10-16T15:21:53;2.93;;;0.80;;
1679;SDS011;838;51.794;12.258;2022-10-16T15:24:19;2.20;;;0.77;;
1679;SDS011;838;51.794;12.258;2022-10-16T15:26:51;2.30;;;0.60;;
1679;SDS011;838;51.794;12.258;2022-10-16T15:29:16;2.10;;;0.60;;
1679;SDS011;838;51.794;12.258;2022-10-16T15:31:43;2.63;;;0.60;;
1679;SDS011;838;51.794;12.258;2022-10-16T15:34:09;2.27;;;0.77;;
1679;SDS011;838;51.794;12.258;2022-10-16T15:36:36;2.73;;;0.50;;
1679;SDS011;838;51.794;12.258;2022-10-16T15:39:21;2.10;;;0.43;;
1679;SDS011;838;51.794;12.258;2022-10-16T15:41:52;2.20;;;0.70;;
1679;SDS011;838;51.794;12.258;2022-10-16T15:44:21;2.20;;;0.70;;
1679;SDS011;838;51.794;12.258;2022-10-16T15:46:54;2.80;;;0.70;;
1679;SDS011;838;51.794;12.258;2022-10-16T15:49:23;6.60;;;3.30;;
1679;SDS011;838;51.794;12.258;2022-10-16T15:51:48;2.40;;;1.10;;
1679;SDS011;838;51.794;12.258;2022-10-16T15:54:14;5.67;;;2.10;;
1679;SDS011;838;51.794;12.258;2022-10-16T15:56:40;3.40;;;1.83;;
1679;SDS011;838;51.794;12.258;2022-10-16T15:59:06;2.93;;;1.50;;
1679;SDS011;838;51.794;12.258;2022-10-16T16:01:33;4.00;;;0.87;;
1679;SDS011;838;51.794;12.258;2022-10-16T16:04:06;2.60;;;0.80;;
1679;SDS011;838;51.794;12.258;2022-10-16T16:06:32;6.07;;;0.70;;
1679;SDS011;838;51.794;12.258;2022-10-16T16:08:58;2.60;;;1.00;;
1679;SDS011;838;51.794;12.258;2022-10-16T16:11:24;3.43;;;1.43;;
1679;SDS011;838;51.794;12.258;2022-10-16T16:13:50;6.63;;;1.73;;
1679;SDS011;838;51.794;12.258;2022-10-16T16:16:17;2.57;;;0.70;;
1679;SDS011;838;51.794;12.258;2022-10-16T16:18:44;3.27;;;0.70;;
1679;SDS011;838;51.794;12.258;2022-10-16T16:21:14;3.40;;;0.87;;
1679;SDS011;838;51.794;12.258;2022-10-16T16:23:43;3.60;;;1.30;;
1679;SDS011;838;51.794;12.258;2022-10-16T16:26:13;2.80;;;1.10;;
1679;SDS011;838;51.794;12.258;2022-10-16T16:28:46;3.80;;;1.10;;
1679;SDS011;838;51.794;12.258;2022-10-16T16:31:15;3.70;;;1.50;;
1679;SDS011;838;51.794;12.258;2022-10-16T16:33:40;3.27;;;1.50;;
1679;SDS011;838;51.794;12.258;2022-10-16T16:36:06;4.60;;;1.37;;
1679;SDS011;838;51.794;12.258;2022-10-16T16:38:32;2.63;;;0.70;;
1679;SDS011;838;51.794;12.258;2022-10-16T16:40:58;3.33;;;0.70;;
1679;SDS011;838;51.794;12.258;2022-10-16T16:43:24;2.30;;;0.70;;
1679;SDS011;838;51.794;12.258;2022-10-16T16:45:52;3.03;;;0.80;;
1679;SDS011;838;51.794;12.258;2022-10-16T16:48:18;3.27;;;0.80;;
1679;SDS011;838;51.794;12.258;2022-10-16T16:50:44;2.50;;;0.97;;
1679;SDS011;838;51.794;12.258;2022-10-16T16:53:09;2.47;;;0.77;;
1679;SDS011;838;51.794;12.258;2022-10-16T16:55:35;4.50;;;1.27;;
1679;SDS011;838;51.794;12.258;2022-10-16T16:58:01;2.60;;;0.90;;
1679;SDS011;838;51.794;12.258;2022-10-16T17:00:28;2.60;;;1.00;;
1679;SDS011;838;51.794;12.258;2022-10-16T17:02:56;3.40;;;1.03;;
1679;SDS011;838;51.794;12.258;2022-10-16T17:05:24;2.57;;;1.27;;
1679;SDS011;838;51.794;12.258;2022-10-16T17:07:49;3.00;;;1.30;;
1679;SDS011;838;51.794;12.258;2022-10-16T17:10:18;4.37;;;1.40;;
1679;SDS011;838;51.794;12.258;2022-10-16T17:12:47;4.20;;;1.20;;
1679;SDS011;838;51.794;12.258;2022-10-16T17:15:13;4.10;;;1.30;;
1679;SDS011;838;51.794;12.258;2022-10-16T17:17:38;2.50;;;1.23;;
1679;SDS011;838;51.794;12.258;2022-10-16T17:20:14;3.93;;;1.20;;
1679;SDS011;838;51.794;12.258;2022-10-16T17:22:40;3.13;;;1.27;;
1679;SDS011;838;51.794;12.258;2022-10-16T17:25:09;5.17;;;1.13;;